createdAt,value
2023-02-03T00:00:19.100Z,8.79
2023-02-03T00:03:04.521Z,8.87
2023-02-03T00:05:49.537Z,8.88
2023-02-03T00:08:36.180Z,8.86
2023-02-03T00:11:21.807Z,8.73
2023-02-03T00:14:08.002Z,8.78
2023-02-03T00:16:53.356Z,8.69
2023-02-03T00:19:38.076Z,8.74
2023-02-03T00:22:23.119Z,8.79
2023-02-03T00:25:08.388Z,8.82
2023-02-03T00:27:53.664Z,8.86
2023-02-03T00:30:38.655Z,8.88
2023-02-03T00:33:23.645Z,8.85
2023-02-03T00:36:09.274Z,8.86
2023-02-03T00:38:54.609Z,8.81
2023-02-03T00:41:39.871Z,8.94
2023-02-03T00:44:25.066Z,8.93
2023-02-03T00:47:10.589Z,8.95
2023-02-03T00:49:55.889Z,8.88
2023-02-03T00:52:41.111Z,8.96
2023-02-03T00:55:26.510Z,8.96
2023-02-03T00:58:11.348Z,8.91
2023-02-03T01:00:59.707Z,8.92
2023-02-03T01:03:44.667Z,8.94
2023-02-03T01:06:29.722Z,8.95
2023-02-03T01:09:14.916Z,8.93
2023-02-03T01:12:00.002Z,8.95
2023-02-03T01:14:45.280Z,8.96
2023-02-03T01:17:30.482Z,9.01
2023-02-03T01:20:17.042Z,8.94
2023-02-03T01:23:02.329Z,8.96
2023-02-03T01:25:47.159Z,9.06
2023-02-03T01:28:32.639Z,8.98
2023-02-03T01:31:22.128Z,9.04
2023-02-03T01:34:11.418Z,9.01
2023-02-03T01:36:56.471Z,9.02
2023-02-03T01:39:41.598Z,9.04
2023-02-03T01:42:28.573Z,8.95
2023-02-03T01:45:14.008Z,9.07
2023-02-03T01:48:00.135Z,9.09
2023-02-03T01:50:44.990Z,9.11
2023-02-03T01:53:31.659Z,9.05
2023-02-03T01:56:17.370Z,9.14
2023-02-03T01:59:02.669Z,9.13
2023-02-03T02:01:48.571Z,9.12
2023-02-03T02:04:56.845Z,9.10
2023-02-03T02:07:43.752Z,9.04
2023-02-03T02:10:31.293Z,9.14
2023-02-03T02:13:18.277Z,9.13
2023-02-03T02:16:22.389Z,9.14
2023-02-03T02:19:45.492Z,9.14
2023-02-03T02:22:30.421Z,9.12
2023-02-03T02:25:49.412Z,9.15
2023-02-03T02:29:00.615Z,9.13
2023-02-03T02:32:00.359Z,9.08
2023-02-03T02:35:03.305Z,9.01
2023-02-03T02:38:29.350Z,9.09
2023-02-03T02:41:26.377Z,9.04
2023-02-03T02:44:23.479Z,9.05
2023-02-03T02:47:20.057Z,9.14
2023-02-03T02:50:11.812Z,9.08
2023-02-03T02:52:58.173Z,9.10
2023-02-03T02:55:44.606Z,9.05
2023-02-03T02:58:32.019Z,9.09
2023-02-03T03:01:17.924Z,9.13
2023-02-03T03:04:06.048Z,9.09
2023-02-03T03:06:58.384Z,9.07
2023-02-03T03:09:49.301Z,9.00
2023-02-03T03:12:43.153Z,9.08
2023-02-03T03:15:31.775Z,9.08
2023-02-03T03:18:36.089Z,9.08
2023-02-03T03:21:27.451Z,9.08
2023-02-03T03:24:18.523Z,9.08
2023-02-03T03:27:19.076Z,9.12
2023-02-03T03:30:11.649Z,9.01
2023-02-03T03:32:58.501Z,9.05
2023-02-03T03:35:58.986Z,8.98
2023-02-03T03:38:49.999Z,9.09
2023-02-03T03:41:49.949Z,9.11
2023-02-03T03:44:42.413Z,9.07
2023-02-03T03:47:56.377Z,9.07
2023-02-03T03:50:47.385Z,8.96
2023-02-03T03:53:35.363Z,9.02
2023-02-03T03:56:28.153Z,8.93
2023-02-03T03:59:16.404Z,9.01
2023-02-03T04:02:04.643Z,9.00
2023-02-03T04:04:51.062Z,8.99
2023-02-03T04:07:44.390Z,9.00
2023-02-03T04:10:38.963Z,8.89
2023-02-03T04:13:24.317Z,8.93
2023-02-03T04:16:09.570Z,8.88
2023-02-03T04:18:54.779Z,8.84
2023-02-03T04:21:40.014Z,8.95
2023-02-03T04:24:25.029Z,8.97
2023-02-03T04:27:10.953Z,8.95
2023-02-03T04:29:55.653Z,8.95
2023-02-03T04:32:41.264Z,8.95
2023-02-03T04:35:26.716Z,8.95
2023-02-03T04:38:11.823Z,8.94
2023-02-03T04:40:56.755Z,8.91
2023-02-03T04:43:41.792Z,8.88
2023-02-03T04:46:26.872Z,8.86
2023-02-03T04:49:11.828Z,8.80
2023-02-03T04:51:56.807Z,8.84
2023-02-03T04:54:41.954Z,8.84
2023-02-03T04:57:27.292Z,8.83
2023-02-03T05:00:13.376Z,8.81
2023-02-03T05:02:58.611Z,8.76
2023-02-03T05:05:44.201Z,8.80
2023-02-03T05:08:30.525Z,8.77
2023-02-03T05:11:15.709Z,8.88
2023-02-03T05:14:00.819Z,8.81
2023-02-03T05:16:46.564Z,8.88
2023-02-03T05:19:31.703Z,8.83
2023-02-03T05:22:16.739Z,8.83
2023-02-03T05:25:02.847Z,8.87
2023-02-03T05:27:48.243Z,8.88
2023-02-03T05:30:33.528Z,8.89
2023-02-03T05:33:19.036Z,8.90
2023-02-03T05:36:04.532Z,8.89
2023-02-03T05:38:49.751Z,8.90
2023-02-03T05:41:53.076Z,8.93
2023-02-03T05:44:37.976Z,8.91
2023-02-03T05:47:22.903Z,8.91
2023-02-03T05:50:08.361Z,8.89
2023-02-03T05:52:53.368Z,8.86
2023-02-03T05:55:38.370Z,8.87
2023-02-03T05:58:23.725Z,8.85
2023-02-03T06:01:08.964Z,8.86
2023-02-03T06:03:53.925Z,8.84
2023-02-03T06:06:39.257Z,8.84
2023-02-03T06:09:24.189Z,8.83
2023-02-03T06:12:09.146Z,8.87
2023-02-03T06:14:54.324Z,8.89
2023-02-03T06:17:39.758Z,8.87
2023-02-03T06:20:24.938Z,8.81
2023-02-03T06:23:09.780Z,8.79
2023-02-03T06:25:55.486Z,8.61
2023-02-03T06:28:40.822Z,8.75
2023-02-03T06:31:26.378Z,8.69
2023-02-03T06:34:11.352Z,8.60
2023-02-03T06:36:56.575Z,8.67
2023-02-03T06:39:41.618Z,8.61
2023-02-03T06:42:26.826Z,8.60
2023-02-03T06:45:12.079Z,8.61
2023-02-03T06:47:57.009Z,8.61
2023-02-03T06:50:43.175Z,8.57
2023-02-03T06:53:28.487Z,8.60
2023-02-03T06:56:13.358Z,8.61
2023-02-03T06:58:58.933Z,8.59
2023-02-03T07:01:44.109Z,8.62
2023-02-03T07:04:30.163Z,8.55
2023-02-03T07:07:15.026Z,8.54
2023-02-03T07:10:02.829Z,8.42
2023-02-03T07:12:48.023Z,8.48
2023-02-03T07:15:33.710Z,8.39
2023-02-03T07:18:45.240Z,8.36
2023-02-03T07:21:26.635Z,8.42
2023-02-03T07:24:11.870Z,8.35
2023-02-03T07:26:56.744Z,8.38
2023-02-03T07:29:42.086Z,8.36
2023-02-03T07:32:27.055Z,8.36
2023-02-03T07:35:12.339Z,8.38
2023-02-03T07:37:57.207Z,8.41
2023-02-03T07:40:42.178Z,8.37
2023-02-03T07:43:27.144Z,8.23
2023-02-03T07:46:12.564Z,8.29
2023-02-03T07:48:57.872Z,8.32
2023-02-03T07:51:45.313Z,8.25
2023-02-03T07:54:30.500Z,8.32
2023-02-03T07:57:15.654Z,8.29
2023-02-03T08:00:00.505Z,8.31
2023-02-03T08:02:47.000Z,8.27
2023-02-03T08:05:32.333Z,8.25
2023-02-03T08:08:17.618Z,8.20
2023-02-03T08:11:03.082Z,8.24
2023-02-03T08:13:48.265Z,8.26
2023-02-03T08:16:33.608Z,8.30
2023-02-03T08:19:18.659Z,8.33
2023-02-03T08:22:03.618Z,8.34
2023-02-03T08:24:49.290Z,8.35
2023-02-03T08:27:34.787Z,8.36
2023-02-03T08:30:19.755Z,8.36
2023-02-03T08:33:05.036Z,8.39
2023-02-03T08:35:50.866Z,8.36
2023-02-03T08:38:36.473Z,8.44
2023-02-03T08:41:21.733Z,8.47
2023-02-03T08:44:07.104Z,8.50
2023-02-03T08:46:53.513Z,8.51
2023-02-03T08:49:41.867Z,8.55
2023-02-03T08:52:26.930Z,8.55
2023-02-03T08:55:12.448Z,8.49
2023-02-03T08:57:57.676Z,8.58
2023-02-03T09:00:43.310Z,8.60
2023-02-03T09:03:28.315Z,8.63
2023-02-03T09:06:16.520Z,8.62
2023-02-03T09:09:02.368Z,8.69
2023-02-03T09:11:48.035Z,8.74
2023-02-03T09:14:34.057Z,8.77
2023-02-03T09:17:19.497Z,8.86
2023-02-03T09:20:05.721Z,8.93
2023-02-03T09:22:50.903Z,8.93
2023-02-03T09:25:36.590Z,9.00
2023-02-03T09:28:21.915Z,9.07
2023-02-03T09:31:09.975Z,9.08
2023-02-03T09:33:55.034Z,9.10
2023-02-03T09:36:41.917Z,9.11
2023-02-03T09:39:27.870Z,9.16
2023-02-03T09:42:31.971Z,9.24
2023-02-03T09:45:29.286Z,9.26
2023-02-03T09:48:32.495Z,9.28
2023-02-03T09:51:25.259Z,9.31
2023-02-03T09:54:47.476Z,9.37
2023-02-03T09:57:43.953Z,9.50
2023-02-03T10:00:35.228Z,9.47
2023-02-03T10:03:32.540Z,9.57
2023-02-03T10:06:36.456Z,9.66
2023-02-03T10:09:39.776Z,9.77
2023-02-03T10:12:49.600Z,9.89
2023-02-03T10:15:52.735Z,9.87
2023-02-03T10:18:47.092Z,9.96
2023-02-03T10:21:55.341Z,9.96
2023-02-03T10:24:46.604Z,10.01
2023-02-03T10:27:33.467Z,10.09
2023-02-03T10:30:21.891Z,10.05
2023-02-03T10:33:13.015Z,10.16
2023-02-03T10:36:15.227Z,10.20
2023-02-03T10:39:41.734Z,10.27
2023-02-03T10:42:50.014Z,10.39
2023-02-03T10:45:38.437Z,10.51
2023-02-03T10:48:24.970Z,10.54
2023-02-03T10:51:23.655Z,10.62
2023-02-03T10:54:35.119Z,10.71
2023-02-03T10:57:20.175Z,10.77
2023-02-03T11:00:28.831Z,10.82
2023-02-03T11:03:14.196Z,10.85
2023-02-03T11:06:06.957Z,10.82
2023-02-03T11:08:52.629Z,10.88
2023-02-03T11:11:41.583Z,10.83
2023-02-03T11:14:26.813Z,11.02
2023-02-03T11:17:19.761Z,11.11
2023-02-03T11:20:15.822Z,11.30
2023-02-03T11:23:02.857Z,11.42
2023-02-03T11:25:48.473Z,11.56
2023-02-03T11:28:33.472Z,11.63
2023-02-03T11:31:23.591Z,11.70
2023-02-03T11:34:15.942Z,11.68
2023-02-03T11:37:33.354Z,11.88
2023-02-03T11:40:21.356Z,12.04
2023-02-03T11:43:16.679Z,12.14
2023-02-03T11:46:05.118Z,12.10
2023-02-03T11:49:00.113Z,12.18
2023-02-03T11:51:57.606Z,12.15
2023-02-03T11:54:51.768Z,12.20
2023-02-03T11:57:52.230Z,12.15
2023-02-03T12:00:49.237Z,12.17
2023-02-03T12:03:50.694Z,12.20
2023-02-03T12:06:58.463Z,12.28
2023-02-03T12:09:52.428Z,12.33
2023-02-03T12:12:55.971Z,12.39
2023-02-03T12:16:03.172Z,12.45
2023-02-03T12:19:00.424Z,12.48
2023-02-03T12:21:56.590Z,12.42
2023-02-03T12:24:55.476Z,12.47
2023-02-03T12:28:40.022Z,12.54
2023-02-03T12:31:42.678Z,12.54
2023-02-03T12:34:39.252Z,12.84
2023-02-03T12:37:49.811Z,13.00
2023-02-03T12:40:49.433Z,13.18
2023-02-03T12:43:43.421Z,13.24
2023-02-03T12:46:45.075Z,13.29
2023-02-03T12:49:46.957Z,13.41
2023-02-03T12:52:42.216Z,13.46
2023-02-03T12:55:38.849Z,13.50
2023-02-03T12:58:34.747Z,13.53
2023-02-03T13:01:28.108Z,13.59
2023-02-03T13:04:41.662Z,13.56
2023-02-03T13:07:33.527Z,13.76
2023-02-03T13:10:27.202Z,13.84
2023-02-03T13:13:16.435Z,13.82
2023-02-03T13:16:07.828Z,13.87
2023-02-03T13:19:01.889Z,13.74
2023-02-03T13:21:50.758Z,13.65
2023-02-03T13:24:36.147Z,13.60
2023-02-03T13:27:46.089Z,13.58
2023-02-03T13:30:38.644Z,13.42
2023-02-03T13:33:31.829Z,13.29
2023-02-03T13:36:25.779Z,13.23
2023-02-03T13:39:36.590Z,13.20
2023-02-03T13:42:30.236Z,13.23
2023-02-03T13:45:37.255Z,13.20
2023-02-03T13:48:33.660Z,13.32
2023-02-03T13:51:25.571Z,13.52
2023-02-03T13:54:21.031Z,13.67
2023-02-03T13:57:21.265Z,13.60
2023-02-03T14:00:28.216Z,13.51
2023-02-03T14:03:25.574Z,13.48
2023-02-03T14:06:36.181Z,13.56
2023-02-03T14:09:30.512Z,13.64
2023-02-03T14:12:15.231Z,13.54
2023-02-03T14:15:13.063Z,13.49
2023-02-03T14:18:01.524Z,13.51
2023-02-03T14:20:51.124Z,13.44
2023-02-03T14:23:40.061Z,13.33
2023-02-03T14:26:52.980Z,13.31
2023-02-03T14:29:37.908Z,13.29
2023-02-03T14:32:23.019Z,13.38
2023-02-03T14:35:17.773Z,13.33
2023-02-03T14:38:06.806Z,13.29
2023-02-03T14:40:59.497Z,13.21
2023-02-03T14:44:16.268Z,13.22
2023-02-03T14:47:01.316Z,13.15
2023-02-03T14:50:17.170Z,13.06
2023-02-03T14:53:23.891Z,12.97
2023-02-03T14:57:08.119Z,13.07
2023-02-03T14:59:56.403Z,13.14
2023-02-03T15:03:10.108Z,13.18
2023-02-03T15:05:58.997Z,13.19
2023-02-03T15:08:48.536Z,13.16
2023-02-03T15:11:33.950Z,13.13
2023-02-03T15:14:22.116Z,13.06
2023-02-03T15:17:23.158Z,13.03
2023-02-03T15:20:25.945Z,12.98
2023-02-03T15:23:26.627Z,12.81
2023-02-03T15:26:14.151Z,12.86
2023-02-03T15:29:02.316Z,12.86
2023-02-03T15:31:51.243Z,12.84
2023-02-03T15:34:41.662Z,12.83
2023-02-03T15:37:35.641Z,12.73
2023-02-03T15:40:23.473Z,12.71
2023-02-03T15:43:14.679Z,12.72
2023-02-03T15:46:25.844Z,12.65
2023-02-03T15:49:18.144Z,12.52
2023-02-03T15:52:07.941Z,12.46
2023-02-03T15:54:55.405Z,12.37
2023-02-03T15:57:40.793Z,12.45
2023-02-03T16:00:38.574Z,12.34
2023-02-03T16:03:29.768Z,12.33
2023-02-03T16:06:25.429Z,12.41
2023-02-03T16:09:27.369Z,12.26
2023-02-03T16:12:22.401Z,12.24
2023-02-03T16:15:23.666Z,12.21
2023-02-03T16:18:17.758Z,12.18
2023-02-03T16:21:06.997Z,12.03
2023-02-03T16:23:52.052Z,12.04
2023-02-03T16:26:38.455Z,11.86
2023-02-03T16:29:47.617Z,11.62
2023-02-03T16:32:51.350Z,11.52
2023-02-03T16:35:55.385Z,11.43
2023-02-03T16:39:06.939Z,11.36
2023-02-03T16:42:17.070Z,11.32
2023-02-03T16:45:21.355Z,11.19
2023-02-03T16:48:25.772Z,11.05
2023-02-03T16:51:15.832Z,10.93
2023-02-03T16:54:01.176Z,10.95
2023-02-03T16:56:47.400Z,10.89
2023-02-03T16:59:32.714Z,10.79
2023-02-03T17:02:18.263Z,10.76
2023-02-03T17:05:03.623Z,10.69
2023-02-03T17:07:49.172Z,10.71
2023-02-03T17:10:38.989Z,10.59
2023-02-03T17:13:24.590Z,10.58
2023-02-03T17:16:17.053Z,10.56
2023-02-03T17:19:02.289Z,10.47
2023-02-03T17:21:47.968Z,10.36
2023-02-03T17:24:32.818Z,10.44
2023-02-03T17:27:17.920Z,10.39
2023-02-03T17:30:04.214Z,10.29
2023-02-03T17:32:49.418Z,10.31
2023-02-03T17:35:34.353Z,10.24
2023-02-03T17:38:19.577Z,10.18
2023-02-03T17:53:30.697Z,9.97
2023-02-03T17:56:19.620Z,9.94
2023-02-03T17:59:05.701Z,9.86
2023-02-03T18:01:50.590Z,9.88
2023-02-03T18:04:36.222Z,9.77
2023-02-03T18:07:21.545Z,9.81
2023-02-03T18:10:06.962Z,9.75
2023-02-03T18:12:52.301Z,9.69
2023-02-03T18:15:38.503Z,9.65
2023-02-03T18:18:25.772Z,9.64
2023-02-03T18:21:13.557Z,9.63
2023-02-03T18:24:01.602Z,9.62
2023-02-03T18:26:49.768Z,9.50
2023-02-03T18:29:34.590Z,9.52
2023-02-03T18:32:20.015Z,9.55
2023-02-03T18:35:07.590Z,9.58
2023-02-03T18:37:52.460Z,9.58
2023-02-03T18:40:38.318Z,9.55
2023-02-03T18:43:23.593Z,9.52
2023-02-03T18:46:11.644Z,9.47
2023-02-03T18:48:57.179Z,9.45
2023-02-03T18:51:42.131Z,9.42
2023-02-03T18:54:29.503Z,9.40
2023-02-03T18:57:15.685Z,9.39
2023-02-03T19:00:00.791Z,9.35
2023-02-03T19:02:49.529Z,9.33
2023-02-03T19:05:34.385Z,9.31
2023-02-03T19:08:19.383Z,9.19
2023-02-03T19:11:04.803Z,9.14
2023-02-03T19:13:50.233Z,9.17
2023-02-03T19:16:35.254Z,9.10
2023-02-03T19:19:20.926Z,8.98
2023-02-03T19:22:05.955Z,9.05
2023-02-03T19:24:50.900Z,9.02
2023-02-03T19:27:36.177Z,9.01
2023-02-03T19:30:22.013Z,8.92
2023-02-03T19:33:07.013Z,8.90
2023-02-03T19:35:52.799Z,8.84
2023-02-03T19:38:38.345Z,8.83
2023-02-03T19:41:25.679Z,8.82
2023-02-03T19:44:10.735Z,8.83
2023-02-03T19:46:56.000Z,8.85
2023-02-03T19:49:41.346Z,8.90
2023-02-03T19:52:26.306Z,8.95
2023-02-03T19:55:12.210Z,8.89
2023-02-03T19:57:59.859Z,9.01
2023-02-03T20:00:44.961Z,9.01
2023-02-03T20:03:30.312Z,8.98
2023-02-03T20:06:16.181Z,8.99
2023-02-03T20:09:01.352Z,9.02
2023-02-03T20:11:46.251Z,8.99
2023-02-03T20:14:33.823Z,9.01
2023-02-03T20:17:18.927Z,8.98
2023-02-03T20:20:04.878Z,8.91
2023-02-03T20:22:50.197Z,9.01
2023-02-03T20:25:35.521Z,9.04
2023-02-03T20:28:23.094Z,9.05
2023-02-03T20:31:08.499Z,9.06
2023-02-03T20:33:53.949Z,9.10
2023-02-03T20:36:39.171Z,9.15
2023-02-03T20:39:24.388Z,9.15
2023-02-03T20:42:15.222Z,9.17
2023-02-03T20:45:00.202Z,9.05
2023-02-03T20:47:45.616Z,9.13
2023-02-03T20:50:41.563Z,9.11
2023-02-03T20:53:27.639Z,9.09
2023-02-03T20:56:18.258Z,8.97
2023-02-03T20:59:03.564Z,8.98
2023-02-03T21:01:49.120Z,8.99
2023-02-03T21:04:53.211Z,8.93
2023-02-03T21:07:39.242Z,8.86
2023-02-03T21:10:25.094Z,8.78
2023-02-03T21:13:27.877Z,8.69
2023-02-03T21:16:27.586Z,8.65
2023-02-03T21:19:21.835Z,8.61
2023-02-03T21:22:30.197Z,8.53
2023-02-03T21:25:27.098Z,8.48
2023-02-03T21:28:24.637Z,8.34
2023-02-03T21:31:23.261Z,8.39
2023-02-03T21:34:37.815Z,8.38
2023-02-03T21:37:23.004Z,8.38
2023-02-03T21:40:29.209Z,8.31
2023-02-03T21:43:17.901Z,8.21
2023-02-03T21:46:03.059Z,8.24
2023-02-03T21:48:50.826Z,8.21
2023-02-03T21:51:39.498Z,8.13
2023-02-03T21:54:33.631Z,8.03
2023-02-03T21:57:20.609Z,8.10
2023-02-03T22:00:34.601Z,8.12
2023-02-03T22:03:27.703Z,8.12
2023-02-03T22:06:18.728Z,8.00
2023-02-03T22:09:04.014Z,7.92
2023-02-03T22:11:49.246Z,7.86
2023-02-03T22:14:34.406Z,7.84
2023-02-03T22:17:19.266Z,7.87
2023-02-03T22:20:04.325Z,7.86
2023-02-03T22:22:49.324Z,7.84
2023-02-03T22:25:34.453Z,7.80
2023-02-03T22:28:19.556Z,7.74
2023-02-03T22:31:07.554Z,7.73
2023-02-03T22:33:52.555Z,7.72
2023-02-03T22:36:37.803Z,7.73
2023-02-03T22:39:22.936Z,7.73
2023-02-03T22:42:07.994Z,7.67
2023-02-03T22:44:53.189Z,7.77
2023-02-03T22:47:38.428Z,7.67
2023-02-03T22:50:34.779Z,7.74
2023-02-03T22:53:21.058Z,7.76
2023-02-03T22:56:06.026Z,7.78
2023-02-03T22:58:51.346Z,7.60
2023-02-03T23:01:36.349Z,7.70
2023-02-03T23:04:22.817Z,7.69
2023-02-03T23:07:07.784Z,7.70
2023-02-03T23:09:53.108Z,7.64
2023-02-03T23:12:38.096Z,7.71
2023-02-03T23:15:23.466Z,7.73
2023-02-03T23:18:08.494Z,7.60
2023-02-03T23:20:53.850Z,7.69
2023-02-03T23:23:39.002Z,7.79
2023-02-03T23:26:23.945Z,7.80
2023-02-03T23:29:09.134Z,7.80
2023-02-03T23:31:54.519Z,7.75
2023-02-03T23:34:57.993Z,7.85
2023-02-03T23:37:43.280Z,7.88
2023-02-03T23:40:29.211Z,7.87
2023-02-03T23:43:15.626Z,7.73
2023-02-03T23:46:00.827Z,7.86
2023-02-03T23:48:46.074Z,7.88
2023-02-03T23:51:31.373Z,7.90
2023-02-03T23:54:16.463Z,7.84
2023-02-03T23:57:01.315Z,7.87
2023-02-03T23:59:46.570Z,7.97
